Eendracht — PDVN — position and weather

sailwx.info

Track history (hours):
 
Tides and Currents Weather Stations Pressure Air Temp Water Temp Dewpoint Dewpoint Depression Visibility Wind Speed Wind Dir Waves Ship Positions

Eendracht (Netherlands)

Last reported at 2017-Mar-28 17:33 UTC. Time now 2017-Mar-28 17:34 UTC.
Position N 51°35' E 001°44'.

Length 59 m; beam 12 m; draft 5 m.

Type: Sailing vessel. MMSI: 244543000.

Date/timePositionNaut miles runAvg speedWind from/ knotsBaromVisibWave heightAir tempDewpointWater temp
2017-Mar-28 17:33N 51°35' E 001°44'7 7.4
2017-Mar-28 16:33N 51°31' E 001°34'9 8.5
2017-Mar-28 15:33N 51°28' E 001°20'9 9.4
2017-Mar-28 14:33N 51°29' E 001°05'8 8.2
2017-Mar-28 13:33N 51°30' E 000°52'3 3.0
2017-Mar-28 12:34N 51°30' E 000°47'0 0.0
2017-Mar-28 11:33N 51°30' E 000°47'0 0.0
2017-Mar-28 10:34N 51°30' E 000°47'0 0.0
2017-Mar-28 09:33N 51°30' E 000°47'0 0.0
2017-Mar-28 08:34N 51°30' E 000°47'0 0.1
2017-Mar-28 07:33N 51°30' E 000°47'0 0.0
2017-Mar-28 06:33N 51°30' E 000°48'0 0.0
2017-Mar-28 05:33N 51°30' E 000°48'0 0.0
2017-Mar-28 04:33N 51°30' E 000°48'0 0.0
2017-Mar-28 03:33N 51°30' E 000°48'3 2.7
2017-Mar-28 02:33N 51°31' E 000°43'0 0.1
2017-Mar-28 01:33N 51°31' E 000°43'0 0.0
2017-Mar-28 00:33N 51°31' E 000°43'0 0.0
2017-Mar-27 23:33N 51°31' E 000°43'0 0.0
2017-Mar-27 22:33N 51°31' E 000°43'0 0.0
2017-Mar-27 21:33N 51°31' E 000°43'0 0.0
2017-Mar-27 20:33N 51°31' E 000°43'0 0.0
2017-Mar-27 19:33N 51°31' E 000°43'0 0.0
2017-Mar-27 18:32N 51°31' E 000°43'0 0.0
2017-Mar-27 17:26N 51°31' E 000°43'0 0.0
2017-Mar-27 16:32N 51°31' E 000°43'0 0.0
2017-Mar-27 15:32N 51°31' E 000°43'0 0.0
2017-Mar-27 14:32N 51°31' E 000°43'0 0.0
2017-Mar-27 13:32N 51°31' E 000°43'0 0.0
2017-Mar-27 12:33N 51°31' E 000°43'6 6.0
2017-Mar-27 11:33N 51°30' E 000°53'8 7.9
2017-Mar-27 10:33N 51°30' E 001°05'9 8.5
2017-Mar-27 09:33N 51°29' E 001°19'8 8.2
2017-Mar-27 08:33N 51°30' E 001°32'8 8.0
2017-Mar-27 07:33N 51°32' E 001°44'7 7.3
2017-Mar-27 06:33N 51°33' E 001°56'2 2.0
2017-Mar-27 05:33N 51°35' E 001°57'3 3.3
2017-Mar-27 04:33N 51°38' E 001°59'4 3.5
2017-Mar-27 03:33N 51°41' E 002°02'4 3.8
2017-Mar-27 02:33N 51°44' E 002°05'3 2.8
2017-Mar-27 01:33N 51°47' E 002°06'3 2.8
2017-Mar-27 00:33N 51°50' E 002°07'2 2.3
2017-Mar-26 23:33N 51°52' E 002°08'4 4.2
2017-Mar-26 22:33N 51°51' E 002°15'6 4.9
2017-Mar-26 21:21N 51°52' E 002°25'6 5.9
2017-Mar-26 20:25N 51°53' E 002°33'18 6.4
2017-Mar-26 17:33N 52°01' E 003°00'5 5.5
2017-Mar-26 16:33N 52°03' E 003°09'6 5.9
2017-Mar-26 15:33N 52°04' E 003°18'6 5.3
2017-Mar-26 14:27N 52°04' E 003°28'4 4.6
2017-Mar-26 13:34N 52°04' E 003°34'5 4.5
2017-Mar-26 12:34N 52°04' E 003°42'6 5.6
2017-Mar-26 11:33N 52°03' E 003°51'6 5.6
2017-Mar-26 10:33N 52°02' E 003°60'3 3.0
2017-Mar-26 09:33N 51°60' E 004°03'7 7.1
2017-Mar-26 08:33N 51°56' E 004°13'6 6.3
2017-Mar-26 07:33N 51°54' E 004°23'3 2.8
2017-Mar-26 06:31N 51°54' E 004°27'0 0.0
2017-Mar-26 05:31N 51°54' E 004°27'0 0.0
2017-Mar-26 04:31N 51°54' E 004°27'0 0.0
2017-Mar-26 03:29N 51°54' E 004°27'0 0.0
2017-Mar-26 02:32N 51°54' E 004°27'0 0.0
2017-Mar-26 01:32N 51°54' E 004°27'0 0.0
2017-Mar-26 00:32N 51°54' E 004°27'0 0.0
2017-Mar-25 23:32N 51°54' E 004°27'0 0.0
2017-Mar-25 22:31N 51°54' E 004°27'0 0.0
2017-Mar-25 21:31N 51°54' E 004°27'0 0.0
2017-Mar-25 20:32N 51°54' E 004°27'0 0.0
2017-Mar-25 19:31N 51°54' E 004°27'0 0.0
2017-Mar-25 18:31N 51°54' E 004°27'0 0.0
2017-Mar-25 17:28N 51°54' E 004°27'0 0.0
2017-Mar-25 16:31N 51°54' E 004°27'0 0.0
2017-Mar-25 15:32N 51°54' E 004°27'3 2.8
2017-Mar-25 14:33N 51°54' E 004°23'6 5.8
2017-Mar-25 13:33N 51°55' E 004°14'7 6.8
2017-Mar-25 12:33N 51°59' E 004°05'1 1.2
2017-Mar-25 11:32N 52°00' E 004°03'0 0.0
2017-Mar-25 10:32N 52°00' E 004°03'2 2.0
2017-Mar-25 09:33N 52°01' E 004°01'1 1.3
2017-Mar-25 08:34N 52°02' E 004°03'2 1.5
2017-Mar-25 07:34N 52°00' E 004°03'2 2.0
2017-Mar-25 06:34N 52°02' E 004°03'6 6.1
2017-Mar-25 05:33N 52°09' E 004°04'6 6.2
2017-Mar-25 04:33N 52°15' E 004°02'6 6.1
2017-Mar-25 03:33N 52°20' E 003°58'5 4.7
2017-Mar-25 02:33N 52°25' E 003°55'7 7.0
2017-Mar-25 01:33N 52°18' E 003°59'8 7.6
2017-Mar-25 00:34N 52°11' E 004°02'6 6.5
2017-Mar-24 23:33N 52°04' E 004°06'2 2.0
2017-Mar-24 22:33N 52°03' E 004°05'5 4.9
2017-Mar-24 21:33N 52°07' E 004°03'6 6.4
2017-Mar-24 20:33N 52°14' E 004°03'7 6.8
2017-Mar-24 19:33N 52°20' E 004°00'5 4.6
2017-Mar-24 18:33N 52°24' E 003°56'4 4.3
2017-Mar-24 17:33N 52°22' E 004°02'5 5.1
2017-Mar-24 16:33N 52°19' E 004°09'6 5.6
2017-Mar-24 15:33N 52°15' E 004°15'4 4.1
2017-Mar-24 14:33N 52°18' E 004°17'6 6.1
2017-Mar-24 13:33N 52°24' E 004°20'5 5.0
2017-Mar-24 12:33N 52°29' E 004°23'5 4.9
2017-Mar-24 11:33N 52°33' E 004°27'6 6.3
2017-Mar-24 10:33N 52°39' E 004°31'5 5.0
2017-Mar-24 09:33N 52°44' E 004°30'4 4.4
2017-Mar-24 08:33N 52°48' E 004°31'8 8.1
2017-Mar-24 07:33N 52°55' E 004°39'7 6.5
2017-Mar-24 06:31N 52°59' E 004°48'0 0.0
2017-Mar-24 05:31N 52°59' E 004°48'0 0.0
2017-Mar-24 04:31N 52°59' E 004°48'0 0.0
2017-Mar-24 03:31N 52°59' E 004°48'0 0.1
2017-Mar-24 02:31N 52°59' E 004°48'0 0.0
2017-Mar-24 01:31N 52°59' E 004°48'0 0.0
2017-Mar-24 00:31N 52°59' E 004°48'0 0.1
2017-Mar-23 23:31N 52°59' E 004°48'0 0.0
2017-Mar-23 22:31N 52°59' E 004°48'0 0.0
2017-Mar-23 21:31N 52°59' E 004°48'0 0.0
2017-Mar-23 20:31N 52°59' E 004°48'0 0.0
2017-Mar-23 19:31N 52°59' E 004°48'0 0.0
2017-Mar-23 18:31N 52°59' E 004°48'1 1.0
2017-Mar-23 17:34N 52°58' E 004°47'1 1.2
2017-Mar-23 16:34N 52°59' E 004°47'1 1.1
2017-Mar-23 15:33N 52°59' E 004°48'2 1.5
2017-Mar-23 14:34N 52°59' E 004°46'1 1.0
2017-Mar-23 13:34N 52°59' E 004°47'0 0.4
2017-Mar-23 12:34N 52°58' E 004°47'4 4.4
2017-Mar-23 11:34N 52°56' E 004°41'4 4.3
2017-Mar-23 10:34N 52°54' E 004°35'3 3.3
2017-Mar-23 09:34N 52°57' E 004°34'5 4.5
2017-Mar-23 08:34N 52°52' E 004°35'4 4.3
2017-Mar-23 07:34N 52°48' E 004°34'4 3.7
2017-Mar-23 06:33N 52°44' E 004°34'2 2.2
2017-Mar-23 05:34N 52°42' E 004°32'6 5.7
2017-Mar-23 04:34N 52°48' E 004°33'6 5.7
2017-Mar-23 03:33N 52°54' E 004°32'5 4.7
2017-Mar-23 02:33N 52°58' E 004°30'5 4.7
2017-Mar-23 01:34N 53°03' E 004°28'3 2.8
2017-Mar-23 00:33N 53°06' E 004°29'6 5.7
2017-Mar-22 23:34N 53°00' E 004°25'7 7.0
2017-Mar-22 22:34N 52°54' E 004°25'7 7.1
2017-Mar-22 21:34N 52°46' E 004°25'6 6.1
2017-Mar-22 20:34N 52°41' E 004°27'4 4.3
2017-Mar-22 19:33N 52°36' E 004°29'4 3.9
2017-Mar-22 18:34N 52°33' E 004°26'5 4.7
2017-Mar-22 17:34N 52°28' E 004°24'4 4.5
2017-Mar-22 16:34N 52°24' E 004°24'5 4.5
2017-Mar-22 15:34N 52°19' E 004°22'4 4.1
2017-Mar-22 14:34N 52°15' E 004°21'5 4.9
2017-Mar-22 13:34N 52°11' E 004°18'4 4.4
2017-Mar-22 12:33N 52°08' E 004°13'5 4.6
2017-Mar-22 11:33N 52°04' E 004°08'4 3.7
2017-Mar-22 10:34N 52°02' E 004°03'5 4.7
2017-Mar-22 09:34N 51°58' E 004°08'6 6.3
2017-Mar-22 08:33N 51°54' E 004°16'5 5.2
2017-Mar-22 07:34N 51°54' E 004°24'2 1.9
2017-Mar-22 06:32N 51°54' E 004°28'0 0.0
2017-Mar-22 05:33N 51°54' E 004°28'0 0.0
2017-Mar-22 04:33N 51°54' E 004°28'0 0.0
2017-Mar-22 03:29N 51°54' E 004°28'0 0.0
2017-Mar-22 02:30N 51°54' E 004°28'0 0.0
2017-Mar-22 01:33N 51°54' E 004°28'0 0.0
2017-Mar-22 00:33N 51°54' E 004°28'0 0.0
2017-Mar-21 23:33N 51°54' E 004°28'0 0.0
2017-Mar-21 22:32N 51°54' E 004°28'0 0.0
2017-Mar-21 21:33N 51°54' E 004°28'0 0.0
2017-Mar-21 20:26N 51°54' E 004°28'0 0.0
2017-Mar-21 19:31N 51°54' E 004°28'0 0.0
2017-Mar-21 18:33N 51°54' E 004°28'0 0.0
2017-Mar-21 17:32N 51°54' E 004°28'0 0.0
2017-Mar-21 16:32N 51°54' E 004°28'0 0.0
2017-Mar-21 15:32N 51°54' E 004°28'0 0.0
2017-Mar-21 14:30N 51°54' E 004°28'0 0.0
2017-Mar-21 13:32N 51°54' E 004°28'0 0.0
2017-Mar-21 12:32N 51°54' E 004°28'0 0.0
2017-Mar-21 11:32N 51°54' E 004°28'0 0.0
2017-Mar-21 10:32N 51°54' E 004°28'0 0.0
2017-Mar-21 09:32N 51°54' E 004°28'0 0.0
2017-Mar-21 08:28N 51°54' E 004°28'0 0.0
2017-Mar-21 07:28N 51°54' E 004°28'0 0.0
2017-Mar-21 06:31N 51°54' E 004°28'0 0.0
2017-Mar-21 05:32N 51°54' E 004°28'0 0.0
2017-Mar-21 04:28N 51°54' E 004°28'0 0.0
2017-Mar-21 03:31N 51°54' E 004°28'0 0.0
2017-Mar-21 02:32N 51°54' E 004°28'0 0.0
2017-Mar-21 01:31N 51°54' E 004°28'0 0.0
2017-Mar-21 00:32N 51°54' E 004°28'0 0.0
2017-Mar-20 23:32N 51°54' E 004°28'0 0.0
2017-Mar-20 22:33N 51°54' E 004°28'0 0.0
2017-Mar-20 21:33N 51°54' E 004°28'0 0.0
2017-Mar-20 20:31N 51°54' E 004°28'0 0.0
2017-Mar-20 19:32N 51°54' E 004°28'0 0.0
2017-Mar-20 18:31N 51°54' E 004°28'0 0.0
2017-Mar-20 17:31N 51°54' E 004°28'0 0.0
2017-Mar-20 16:33N 51°54' E 004°28'0 0.0
2017-Mar-20 15:31N 51°54' E 004°28'0 0.0
2017-Mar-20 14:30N 51°54' E 004°28'0 0.0
2017-Mar-20 13:30N 51°54' E 004°28'0 0.0
2017-Mar-20 12:24N 51°54' E 004°28'0 0.0
2017-Mar-20 11:31N 51°54' E 004°28'0 0.0
2017-Mar-20 10:31N 51°54' E 004°28'0 0.0
2017-Mar-20 09:33N 51°54' E 004°28'0 0.0
2017-Mar-20 08:33N 51°54' E 004°28'0 0.0
2017-Mar-20 07:33N 51°54' E 004°28'0 0.0
2017-Mar-20 06:33N 51°54' E 004°28'0 0.0
2017-Mar-20 05:33N 51°54' E 004°28'0 0.0
2017-Mar-20 04:30N 51°54' E 004°28'0 0.0
2017-Mar-20 03:33N 51°54' E 004°28'0 0.0
2017-Mar-20 02:33N 51°54' E 004°28'0 0.0
2017-Mar-20 01:33N 51°54' E 004°28'0 0.0
2017-Mar-20 00:32N 51°54' E 004°28'0 0.0
2017-Mar-19 23:32N 51°54' E 004°28'0 0.0
2017-Mar-19 22:29N 51°54' E 004°28'0 0.0
2017-Mar-19 21:32N 51°54' E 004°28'0 0.0
2017-Mar-19 20:33N 51°54' E 004°28'0 0.0
2017-Mar-19 19:32N 51°54' E 004°28'0 0.0
2017-Mar-19 18:32N 51°54' E 004°28'0 0.0
2017-Mar-19 17:32N 51°54' E 004°28'0 0.0
2017-Mar-19 16:32N 51°54' E 004°28'0 0.0
2017-Mar-19 15:29N 51°54' E 004°28'0 0.0
2017-Mar-19 14:29N 51°54' E 004°28'0 0.0
2017-Mar-19 13:32N 51°54' E 004°28'0 0.0
2017-Mar-19 12:32N 51°54' E 004°28'0 0.0
2017-Mar-19 11:32N 51°54' E 004°28'0 0.0
2017-Mar-19 10:32N 51°54' E 004°28'0 0.0
2017-Mar-19 09:32N 51°54' E 004°28'0 0.0
2017-Mar-19 08:32N 51°54' E 004°28'0 0.0
2017-Mar-19 07:32N 51°54' E 004°28'0 0.0
2017-Mar-19 06:33N 51°54' E 004°28'0 0.0
2017-Mar-19 05:32N 51°54' E 004°28'0 0.0
2017-Mar-19 04:33N 51°54' E 004°28'0 0.0
2017-Mar-19 03:32N 51°54' E 004°28'0 0.0
2017-Mar-19 02:31N 51°54' E 004°28'0 0.0
2017-Mar-19 01:32N 51°54' E 004°28'0 0.0
2017-Mar-19 00:31N 51°54' E 004°28'0 0.0
2017-Mar-18 23:32N 51°54' E 004°28'0 0.0
2017-Mar-18 22:31N 51°54' E 004°28'0 0.0
2017-Mar-18 21:32N 51°54' E 004°28'0 0.0
2017-Mar-18 20:31N 51°54' E 004°28'0 0.0
2017-Mar-18 19:32N 51°54' E 004°28'0 0.0
2017-Mar-18 18:31N 51°54' E 004°28'  
Track history (hours):
 
Tides and Currents Weather Stations Pressure Air Temp Water Temp Dewpoint Dewpoint Depression Visibility Wind Speed Wind Dir Waves Ship Positions

Eendracht (Netherlands)

Last reported at 2017-Mar-28 17:33 UTC. Time now 2017-Mar-28 17:34 UTC.
Position N 51°35' E 001°44'.

Length 59 m; beam 12 m; draft 5 m.

Type: Sailing vessel. MMSI: 244543000.

Date/timePositionNaut miles runAvg speedWind from/ knotsBaromVisibWave heightAir tempDewpointWater temp
2017-Mar-28 17:33N 51°35' E 001°44'7 7.4
2017-Mar-28 16:33N 51°31' E 001°34'9 8.5
2017-Mar-28 15:33N 51°28' E 001°20'9 9.4
2017-Mar-28 14:33N 51°29' E 001°05'8 8.2
2017-Mar-28 13:33N 51°30' E 000°52'3 3.0
2017-Mar-28 12:34N 51°30' E 000°47'0 0.0
2017-Mar-28 11:33N 51°30' E 000°47'0 0.0
2017-Mar-28 10:34N 51°30' E 000°47'0 0.0
2017-Mar-28 09:33N 51°30' E 000°47'0 0.0
2017-Mar-28 08:34N 51°30' E 000°47'0 0.1
2017-Mar-28 07:33N 51°30' E 000°47'0 0.0
2017-Mar-28 06:33N 51°30' E 000°48'0 0.0
2017-Mar-28 05:33N 51°30' E 000°48'0 0.0
2017-Mar-28 04:33N 51°30' E 000°48'0 0.0
2017-Mar-28 03:33N 51°30' E 000°48'3 2.7
2017-Mar-28 02:33N 51°31' E 000°43'0 0.1
2017-Mar-28 01:33N 51°31' E 000°43'0 0.0
2017-Mar-28 00:33N 51°31' E 000°43'0 0.0
2017-Mar-27 23:33N 51°31' E 000°43'0 0.0
2017-Mar-27 22:33N 51°31' E 000°43'0 0.0
2017-Mar-27 21:33N 51°31' E 000°43'0 0.0
2017-Mar-27 20:33N 51°31' E 000°43'0 0.0
2017-Mar-27 19:33N 51°31' E 000°43'0 0.0
2017-Mar-27 18:32N 51°31' E 000°43'0 0.0
2017-Mar-27 17:26N 51°31' E 000°43'0 0.0
2017-Mar-27 16:32N 51°31' E 000°43'0 0.0
2017-Mar-27 15:32N 51°31' E 000°43'0 0.0
2017-Mar-27 14:32N 51°31' E 000°43'0 0.0
2017-Mar-27 13:32N 51°31' E 000°43'0 0.0
2017-Mar-27 12:33N 51°31' E 000°43'6 6.0
2017-Mar-27 11:33N 51°30' E 000°53'8 7.9
2017-Mar-27 10:33N 51°30' E 001°05'9 8.5
2017-Mar-27 09:33N 51°29' E 001°19'8 8.2
2017-Mar-27 08:33N 51°30' E 001°32'8 8.0
2017-Mar-27 07:33N 51°32' E 001°44'7 7.3
2017-Mar-27 06:33N 51°33' E 001°56'2 2.0
2017-Mar-27 05:33N 51°35' E 001°57'3 3.3
2017-Mar-27 04:33N 51°38' E 001°59'4 3.5
2017-Mar-27 03:33N 51°41' E 002°02'4 3.8
2017-Mar-27 02:33N 51°44' E 002°05'3 2.8
2017-Mar-27 01:33N 51°47' E 002°06'3 2.8
2017-Mar-27 00:33N 51°50' E 002°07'2 2.3
2017-Mar-26 23:33N 51°52' E 002°08'4 4.2
2017-Mar-26 22:33N 51°51' E 002°15'6 4.9
2017-Mar-26 21:21N 51°52' E 002°25'6 5.9
2017-Mar-26 20:25N 51°53' E 002°33'18 6.4
2017-Mar-26 17:33N 52°01' E 003°00'5 5.5
2017-Mar-26 16:33N 52°03' E 003°09'6 5.9
2017-Mar-26 15:33N 52°04' E 003°18'6 5.3
2017-Mar-26 14:27N 52°04' E 003°28'4 4.6
2017-Mar-26 13:34N 52°04' E 003°34'5 4.5
2017-Mar-26 12:34N 52°04' E 003°42'6 5.6
2017-Mar-26 11:33N 52°03' E 003°51'6 5.6
2017-Mar-26 10:33N 52°02' E 003°60'3 3.0
2017-Mar-26 09:33N 51°60' E 004°03'7 7.1
2017-Mar-26 08:33N 51°56' E 004°13'6 6.3
2017-Mar-26 07:33N 51°54' E 004°23'3 2.8
2017-Mar-26 06:31N 51°54' E 004°27'0 0.0
2017-Mar-26 05:31N 51°54' E 004°27'0 0.0
2017-Mar-26 04:31N 51°54' E 004°27'0 0.0
2017-Mar-26 03:29N 51°54' E 004°27'0 0.0
2017-Mar-26 02:32N 51°54' E 004°27'0 0.0
2017-Mar-26 01:32N 51°54' E 004°27'0 0.0
2017-Mar-26 00:32N 51°54' E 004°27'0 0.0
2017-Mar-25 23:32N 51°54' E 004°27'0 0.0
2017-Mar-25 22:31N 51°54' E 004°27'0 0.0
2017-Mar-25 21:31N 51°54' E 004°27'0 0.0
2017-Mar-25 20:32N 51°54' E 004°27'0 0.0
2017-Mar-25 19:31N 51°54' E 004°27'0 0.0
2017-Mar-25 18:31N 51°54' E 004°27'0 0.0
2017-Mar-25 17:28N 51°54' E 004°27'0 0.0
2017-Mar-25 16:31N 51°54' E 004°27'0 0.0
2017-Mar-25 15:32N 51°54' E 004°27'3 2.8
2017-Mar-25 14:33N 51°54' E 004°23'6 5.8
2017-Mar-25 13:33N 51°55' E 004°14'7 6.8
2017-Mar-25 12:33N 51°59' E 004°05'1 1.2
2017-Mar-25 11:32N 52°00' E 004°03'0 0.0
2017-Mar-25 10:32N 52°00' E 004°03'2 2.0
2017-Mar-25 09:33N 52°01' E 004°01'1 1.3
2017-Mar-25 08:34N 52°02' E 004°03'2 1.5
2017-Mar-25 07:34N 52°00' E 004°03'2 2.0
2017-Mar-25 06:34N 52°02' E 004°03'6 6.1
2017-Mar-25 05:33N 52°09' E 004°04'6 6.2
2017-Mar-25 04:33N 52°15' E 004°02'6 6.1
2017-Mar-25 03:33N 52°20' E 003°58'5 4.7
2017-Mar-25 02:33N 52°25' E 003°55'7 7.0
2017-Mar-25 01:33N 52°18' E 003°59'8 7.6
2017-Mar-25 00:34N 52°11' E 004°02'6 6.5
2017-Mar-24 23:33N 52°04' E 004°06'2 2.0
2017-Mar-24 22:33N 52°03' E 004°05'5 4.9
2017-Mar-24 21:33N 52°07' E 004°03'6 6.4
2017-Mar-24 20:33N 52°14' E 004°03'7 6.8
2017-Mar-24 19:33N 52°20' E 004°00'5 4.6
2017-Mar-24 18:33N 52°24' E 003°56'4 4.3
2017-Mar-24 17:33N 52°22' E 004°02'5 5.1
2017-Mar-24 16:33N 52°19' E 004°09'6 5.6
2017-Mar-24 15:33N 52°15' E 004°15'4 4.1
2017-Mar-24 14:33N 52°18' E 004°17'6 6.1
2017-Mar-24 13:33N 52°24' E 004°20'5 5.0
2017-Mar-24 12:33N 52°29' E 004°23'5 4.9
2017-Mar-24 11:33N 52°33' E 004°27'6 6.3
2017-Mar-24 10:33N 52°39' E 004°31'5 5.0
2017-Mar-24 09:33N 52°44' E 004°30'4 4.4
2017-Mar-24 08:33N 52°48' E 004°31'8 8.1
2017-Mar-24 07:33N 52°55' E 004°39'7 6.5
2017-Mar-24 06:31N 52°59' E 004°48'0 0.0
2017-Mar-24 05:31N 52°59' E 004°48'0 0.0
2017-Mar-24 04:31N 52°59' E 004°48'0 0.0
2017-Mar-24 03:31N 52°59' E 004°48'0 0.1
2017-Mar-24 02:31N 52°59' E 004°48'0 0.0
2017-Mar-24 01:31N 52°59' E 004°48'0 0.0
2017-Mar-24 00:31N 52°59' E 004°48'0 0.1
2017-Mar-23 23:31N 52°59' E 004°48'0 0.0
2017-Mar-23 22:31N 52°59' E 004°48'0 0.0
2017-Mar-23 21:31N 52°59' E 004°48'0 0.0
2017-Mar-23 20:31N 52°59' E 004°48'0 0.0
2017-Mar-23 19:31N 52°59' E 004°48'0 0.0
2017-Mar-23 18:31N 52°59' E 004°48'1 1.0
2017-Mar-23 17:34N 52°58' E 004°47'1 1.2
2017-Mar-23 16:34N 52°59' E 004°47'1 1.1
2017-Mar-23 15:33N 52°59' E 004°48'2 1.5
2017-Mar-23 14:34N 52°59' E 004°46'1 1.0
2017-Mar-23 13:34N 52°59' E 004°47'0 0.4
2017-Mar-23 12:34N 52°58' E 004°47'4 4.4
2017-Mar-23 11:34N 52°56' E 004°41'4 4.3
2017-Mar-23 10:34N 52°54' E 004°35'3 3.3
2017-Mar-23 09:34N 52°57' E 004°34'5 4.5
2017-Mar-23 08:34N 52°52' E 004°35'4 4.3
2017-Mar-23 07:34N 52°48' E 004°34'4 3.7
2017-Mar-23 06:33N 52°44' E 004°34'2 2.2
2017-Mar-23 05:34N 52°42' E 004°32'6 5.7
2017-Mar-23 04:34N 52°48' E 004°33'6 5.7
2017-Mar-23 03:33N 52°54' E 004°32'5 4.7
2017-Mar-23 02:33N 52°58' E 004°30'5 4.7
2017-Mar-23 01:34N 53°03' E 004°28'3 2.8
2017-Mar-23 00:33N 53°06' E 004°29'6 5.7
2017-Mar-22 23:34N 53°00' E 004°25'7 7.0
2017-Mar-22 22:34N 52°54' E 004°25'7 7.1
2017-Mar-22 21:34N 52°46' E 004°25'6 6.1
2017-Mar-22 20:34N 52°41' E 004°27'4 4.3
2017-Mar-22 19:33N 52°36' E 004°29'4 3.9
2017-Mar-22 18:34N 52°33' E 004°26'5 4.7
2017-Mar-22 17:34N 52°28' E 004°24'4 4.5
2017-Mar-22 16:34N 52°24' E 004°24'5 4.5
2017-Mar-22 15:34N 52°19' E 004°22'4 4.1
2017-Mar-22 14:34N 52°15' E 004°21'5 4.9
2017-Mar-22 13:34N 52°11' E 004°18'4 4.4
2017-Mar-22 12:33N 52°08' E 004°13'5 4.6
2017-Mar-22 11:33N 52°04' E 004°08'4 3.7
2017-Mar-22 10:34N 52°02' E 004°03'5 4.7
2017-Mar-22 09:34N 51°58' E 004°08'6 6.3
2017-Mar-22 08:33N 51°54' E 004°16'5 5.2
2017-Mar-22 07:34N 51°54' E 004°24'2 1.9
2017-Mar-22 06:32N 51°54' E 004°28'0 0.0
2017-Mar-22 05:33N 51°54' E 004°28'0 0.0
2017-Mar-22 04:33N 51°54' E 004°28'0 0.0
2017-Mar-22 03:29N 51°54' E 004°28'0 0.0
2017-Mar-22 02:30N 51°54' E 004°28'0 0.0
2017-Mar-22 01:33N 51°54' E 004°28'0 0.0
2017-Mar-22 00:33N 51°54' E 004°28'0 0.0
2017-Mar-21 23:33N 51°54' E 004°28'0 0.0
2017-Mar-21 22:32N 51°54' E 004°28'0 0.0
2017-Mar-21 21:33N 51°54' E 004°28'0 0.0
2017-Mar-21 20:26N 51°54' E 004°28'0 0.0
2017-Mar-21 19:31N 51°54' E 004°28'0 0.0
2017-Mar-21 18:33N 51°54' E 004°28'0 0.0
2017-Mar-21 17:32N 51°54' E 004°28'0 0.0
2017-Mar-21 16:32N 51°54' E 004°28'0 0.0
2017-Mar-21 15:32N 51°54' E 004°28'0 0.0
2017-Mar-21 14:30N 51°54' E 004°28'0 0.0
2017-Mar-21 13:32N 51°54' E 004°28'0 0.0
2017-Mar-21 12:32N 51°54' E 004°28'0 0.0
2017-Mar-21 11:32N 51°54' E 004°28'0 0.0
2017-Mar-21 10:32N 51°54' E 004°28'0 0.0
2017-Mar-21 09:32N 51°54' E 004°28'0 0.0
2017-Mar-21 08:28N 51°54' E 004°28'0 0.0
2017-Mar-21 07:28N 51°54' E 004°28'0 0.0
2017-Mar-21 06:31N 51°54' E 004°28'0 0.0
2017-Mar-21 05:32N 51°54' E 004°28'0 0.0
2017-Mar-21 04:28N 51°54' E 004°28'0 0.0
2017-Mar-21 03:31N 51°54' E 004°28'0 0.0
2017-Mar-21 02:32N 51°54' E 004°28'0 0.0
2017-Mar-21 01:31N 51°54' E 004°28'0 0.0
2017-Mar-21 00:32N 51°54' E 004°28'0 0.0
2017-Mar-20 23:32N 51°54' E 004°28'0 0.0
2017-Mar-20 22:33N 51°54' E 004°28'0 0.0
2017-Mar-20 21:33N 51°54' E 004°28'0 0.0
2017-Mar-20 20:31N 51°54' E 004°28'0 0.0
2017-Mar-20 19:32N 51°54' E 004°28'0 0.0
2017-Mar-20 18:31N 51°54' E 004°28'0 0.0
2017-Mar-20 17:31N 51°54' E 004°28'0 0.0
2017-Mar-20 16:33N 51°54' E 004°28'0 0.0
2017-Mar-20 15:31N 51°54' E 004°28'0 0.0
2017-Mar-20 14:30N 51°54' E 004°28'0 0.0
2017-Mar-20 13:30N 51°54' E 004°28'0 0.0
2017-Mar-20 12:24N 51°54' E 004°28'0 0.0
2017-Mar-20 11:31N 51°54' E 004°28'0 0.0
2017-Mar-20 10:31N 51°54' E 004°28'0 0.0
2017-Mar-20 09:33N 51°54' E 004°28'0 0.0
2017-Mar-20 08:33N 51°54' E 004°28'0 0.0
2017-Mar-20 07:33N 51°54' E 004°28'0 0.0
2017-Mar-20 06:33N 51°54' E 004°28'0 0.0
2017-Mar-20 05:33N 51°54' E 004°28'0 0.0
2017-Mar-20 04:30N 51°54' E 004°28'0 0.0
2017-Mar-20 03:33N 51°54' E 004°28'0 0.0
2017-Mar-20 02:33N 51°54' E 004°28'0 0.0
2017-Mar-20 01:33N 51°54' E 004°28'0 0.0
2017-Mar-20 00:32N 51°54' E 004°28'0 0.0
2017-Mar-19 23:32N 51°54' E 004°28'0 0.0
2017-Mar-19 22:29N 51°54' E 004°28'0 0.0
2017-Mar-19 21:32N 51°54' E 004°28'0 0.0
2017-Mar-19 20:33N 51°54' E 004°28'0 0.0
2017-Mar-19 19:32N 51°54' E 004°28'0 0.0
2017-Mar-19 18:32N 51°54' E 004°28'0 0.0
2017-Mar-19 17:32N 51°54' E 004°28'0 0.0
2017-Mar-19 16:32N 51°54' E 004°28'0 0.0
2017-Mar-19 15:29N 51°54' E 004°28'0 0.0
2017-Mar-19 14:29N 51°54' E 004°28'0 0.0
2017-Mar-19 13:32N 51°54' E 004°28'0 0.0
2017-Mar-19 12:32N 51°54' E 004°28'0 0.0
2017-Mar-19 11:32N 51°54' E 004°28'0 0.0
2017-Mar-19 10:32N 51°54' E 004°28'0 0.0
2017-Mar-19 09:32N 51°54' E 004°28'0 0.0
2017-Mar-19 08:32N 51°54' E 004°28'0 0.0
2017-Mar-19 07:32N 51°54' E 004°28'0 0.0
2017-Mar-19 06:33N 51°54' E 004°28'0 0.0
2017-Mar-19 05:32N 51°54' E 004°28'0 0.0
2017-Mar-19 04:33N 51°54' E 004°28'0 0.0
2017-Mar-19 03:32N 51°54' E 004°28'0 0.0
2017-Mar-19 02:31N 51°54' E 004°28'0 0.0
2017-Mar-19 01:32N 51°54' E 004°28'0 0.0
2017-Mar-19 00:31N 51°54' E 004°28'0 0.0
2017-Mar-18 23:32N 51°54' E 004°28'0 0.0
2017-Mar-18 22:31N 51°54' E 004°28'0 0.0
2017-Mar-18 21:32N 51°54' E 004°28'0 0.0
2017-Mar-18 20:31N 51°54' E 004°28'0 0.0
2017-Mar-18 19:32N 51°54' E 004°28'0 0.0
2017-Mar-18 18:31N 51°54' E 004°28'  

Dump ship's entire track history